sensor_id;sensor_type;location;lat;lon;timestamp;P1;durP1;ratioP1;P2;durP2;ratioP2
20810;SDS011;10566;52.928;10.522;2023-02-28T00:01:30;9.90;;;5.20;;
20810;SDS011;10566;52.928;10.522;2023-02-28T00:03:56;9.87;;;5.63;;
20810;SDS011;10566;52.928;10.522;2023-02-28T00:06:22;9.23;;;5.27;;
20810;SDS011;10566;52.928;10.522;2023-02-28T00:08:49;11.43;;;5.70;;
20810;SDS011;10566;52.928;10.522;2023-02-28T00:11:15;13.30;;;5.77;;
20810;SDS011;10566;52.928;10.522;2023-02-28T00:13:43;13.63;;;6.17;;
20810;SDS011;10566;52.928;10.522;2023-02-28T00:16:17;16.20;;;7.30;;
20810;SDS011;10566;52.928;10.522;2023-02-28T00:18:45;11.60;;;6.10;;
20810;SDS011;10566;52.928;10.522;2023-02-28T00:21:12;14.17;;;6.83;;
20810;SDS011;10566;52.928;10.522;2023-02-28T00:23:38;12.90;;;6.40;;
20810;SDS011;10566;52.928;10.522;2023-02-28T00:26:04;10.80;;;5.73;;
20810;SDS011;10566;52.928;10.522;2023-02-28T00:28:30;11.57;;;5.80;;
20810;SDS011;10566;52.928;10.522;2023-02-28T00:30:57;13.33;;;6.97;;
20810;SDS011;10566;52.928;10.522;2023-02-28T00:33:24;11.87;;;6.00;;
20810;SDS011;10566;52.928;10.522;2023-02-28T00:35:50;11.47;;;5.70;;
20810;SDS011;10566;52.928;10.522;2023-02-28T00:38:16;10.30;;;5.50;;
20810;SDS011;10566;52.928;10.522;2023-02-28T00:40:42;10.80;;;5.87;;
20810;SDS011;10566;52.928;10.522;2023-02-28T00:43:08;12.10;;;5.80;;
20810;SDS011;10566;52.928;10.522;2023-02-28T00:45:34;13.23;;;6.00;;
20810;SDS011;10566;52.928;10.522;2023-02-28T00:48:01;13.97;;;5.97;;
20810;SDS011;10566;52.928;10.522;2023-02-28T00:50:27;13.20;;;6.57;;
20810;SDS011;10566;52.928;10.522;2023-02-28T00:52:53;13.63;;;5.83;;
20810;SDS011;10566;52.928;10.522;2023-02-28T00:55:19;14.43;;;6.57;;
20810;SDS011;10566;52.928;10.522;2023-02-28T00:57:45;12.40;;;5.70;;
20810;SDS011;10566;52.928;10.522;2023-02-28T01:00:14;11.43;;;5.40;;
20810;SDS011;10566;52.928;10.522;2023-02-28T01:02:40;13.33;;;5.80;;
20810;SDS011;10566;52.928;10.522;2023-02-28T01:05:06;10.37;;;5.40;;
20810;SDS011;10566;52.928;10.522;2023-02-28T01:07:33;12.93;;;5.30;;
20810;SDS011;10566;52.928;10.522;2023-02-28T01:09:59;11.00;;;5.63;;
20810;SDS011;10566;52.928;10.522;2023-02-28T01:12:25;12.03;;;5.40;;
20810;SDS011;10566;52.928;10.522;2023-02-28T01:14:51;11.87;;;5.53;;
20810;SDS011;10566;52.928;10.522;2023-02-28T01:17:18;13.43;;;5.83;;
20810;SDS011;10566;52.928;10.522;2023-02-28T01:19:44;9.87;;;5.37;;
20810;SDS011;10566;52.928;10.522;2023-02-28T01:22:10;10.30;;;5.33;;
20810;SDS011;10566;52.928;10.522;2023-02-28T01:24:37;11.57;;;5.37;;
20810;SDS011;10566;52.928;10.522;2023-02-28T01:27:03;12.93;;;5.73;;
20810;SDS011;10566;52.928;10.522;2023-02-28T01:29:32;12.77;;;5.60;;
20810;SDS011;10566;52.928;10.522;2023-02-28T01:31:58;11.60;;;5.13;;
20810;SDS011;10566;52.928;10.522;2023-02-28T01:34:24;11.67;;;5.67;;
20810;SDS011;10566;52.928;10.522;2023-02-28T01:36:50;12.43;;;5.47;;
20810;SDS011;10566;52.928;10.522;2023-02-28T01:39:16;12.50;;;5.27;;
20810;SDS011;10566;52.928;10.522;2023-02-28T01:41:43;11.97;;;5.27;;
20810;SDS011;10566;52.928;10.522;2023-02-28T01:46:53;9.50;;;4.73;;
20810;SDS011;10566;52.928;10.522;2023-02-28T01:49:20;10.57;;;5.47;;
20810;SDS011;10566;52.928;10.522;2023-02-28T01:51:47;13.57;;;5.87;;
20810;SDS011;10566;52.928;10.522;2023-02-28T01:54:27;10.57;;;5.40;;
20810;SDS011;10566;52.928;10.522;2023-02-28T01:57:01;9.17;;;5.00;;
20810;SDS011;10566;52.928;10.522;2023-02-28T01:59:30;10.87;;;4.83;;
20810;SDS011;10566;52.928;10.522;2023-02-28T02:01:58;10.53;;;5.30;;
20810;SDS011;10566;52.928;10.522;2023-02-28T02:04:26;9.37;;;4.90;;
20810;SDS011;10566;52.928;10.522;2023-02-28T02:06:53;10.10;;;4.80;;
20810;SDS011;10566;52.928;10.522;2023-02-28T02:09:19;9.97;;;5.07;;
20810;SDS011;10566;52.928;10.522;2023-02-28T02:11:48;10.13;;;4.90;;
20810;SDS011;10566;52.928;10.522;2023-02-28T02:19:25;9.67;;;4.87;;
20810;SDS011;10566;52.928;10.522;2023-02-28T02:22:20;9.33;;;4.83;;
20810;SDS011;10566;52.928;10.522;2023-02-28T02:27:34;9.07;;;4.90;;
20810;SDS011;10566;52.928;10.522;2023-02-28T02:37:47;12.00;;;5.20;;
20810;SDS011;10566;52.928;10.522;2023-02-28T02:43:19;15.07;;;5.10;;
20810;SDS011;10566;52.928;10.522;2023-02-28T02:45:54;8.60;;;4.40;;
20810;SDS011;10566;52.928;10.522;2023-02-28T02:48:21;10.67;;;5.00;;
20810;SDS011;10566;52.928;10.522;2023-02-28T02:50:52;7.43;;;4.20;;
20810;SDS011;10566;52.928;10.522;2023-02-28T02:53:21;8.50;;;4.40;;
20810;SDS011;10566;52.928;10.522;2023-02-28T02:55:50;9.97;;;4.47;;
20810;SDS011;10566;52.928;10.522;2023-02-28T02:58:20;9.57;;;4.27;;
20810;SDS011;10566;52.928;10.522;2023-02-28T03:00:50;10.17;;;4.77;;
20810;SDS011;10566;52.928;10.522;2023-02-28T03:03:18;7.80;;;4.40;;
20810;SDS011;10566;52.928;10.522;2023-02-28T03:05:53;10.03;;;4.90;;
20810;SDS011;10566;52.928;10.522;2023-02-28T03:08:20;9.53;;;4.77;;
20810;SDS011;10566;52.928;10.522;2023-02-28T03:10:50;10.30;;;4.70;;
20810;SDS011;10566;52.928;10.522;2023-02-28T03:16:22;9.83;;;4.67;;
20810;SDS011;10566;52.928;10.522;2023-02-28T03:19:01;9.67;;;4.70;;
20810;SDS011;10566;52.928;10.522;2023-02-28T03:21:43;10.47;;;4.70;;
20810;SDS011;10566;52.928;10.522;2023-02-28T03:24:18;8.60;;;4.33;;
20810;SDS011;10566;52.928;10.522;2023-02-28T03:26:46;9.67;;;4.53;;
20810;SDS011;10566;52.928;10.522;2023-02-28T03:29:23;8.13;;;4.10;;
20810;SDS011;10566;52.928;10.522;2023-02-28T03:31:58;10.13;;;4.10;;
20810;SDS011;10566;52.928;10.522;2023-02-28T03:34:36;8.20;;;4.00;;
20810;SDS011;10566;52.928;10.522;2023-02-28T03:37:07;8.87;;;4.37;;
20810;SDS011;10566;52.928;10.522;2023-02-28T03:39:39;8.23;;;4.20;;
20810;SDS011;10566;52.928;10.522;2023-02-28T03:42:08;8.17;;;4.10;;
20810;SDS011;10566;52.928;10.522;2023-02-28T03:44:41;9.27;;;4.33;;
20810;SDS011;10566;52.928;10.522;2023-02-28T03:47:21;8.67;;;4.20;;
20810;SDS011;10566;52.928;10.522;2023-02-28T03:50:04;7.57;;;3.80;;
20810;SDS011;10566;52.928;10.522;2023-02-28T03:52:39;8.13;;;4.00;;
20810;SDS011;10566;52.928;10.522;2023-02-28T03:55:10;8.43;;;4.47;;
20810;SDS011;10566;52.928;10.522;2023-02-28T03:57:41;7.83;;;4.03;;
20810;SDS011;10566;52.928;10.522;2023-02-28T04:00:13;9.77;;;4.63;;
20810;SDS011;10566;52.928;10.522;2023-02-28T04:02:41;8.40;;;4.60;;
20810;SDS011;10566;52.928;10.522;2023-02-28T04:05:07;9.57;;;4.37;;
20810;SDS011;10566;52.928;10.522;2023-02-28T04:07:33;9.63;;;4.33;;
20810;SDS011;10566;52.928;10.522;2023-02-28T04:10:03;9.87;;;4.77;;
20810;SDS011;10566;52.928;10.522;2023-02-28T04:12:29;8.57;;;4.33;;
20810;SDS011;10566;52.928;10.522;2023-02-28T04:14:55;9.53;;;4.70;;
20810;SDS011;10566;52.928;10.522;2023-02-28T04:17:25;8.60;;;4.23;;
20810;SDS011;10566;52.928;10.522;2023-02-28T04:19:51;11.43;;;4.57;;
20810;SDS011;10566;52.928;10.522;2023-02-28T04:22:19;10.30;;;4.50;;
20810;SDS011;10566;52.928;10.522;2023-02-28T04:24:45;8.03;;;4.40;;
20810;SDS011;10566;52.928;10.522;2023-02-28T04:27:11;8.50;;;4.23;;
20810;SDS011;10566;52.928;10.522;2023-02-28T04:29:37;10.03;;;4.30;;
20810;SDS011;10566;52.928;10.522;2023-02-28T04:32:03;7.97;;;4.10;;
20810;SDS011;10566;52.928;10.522;2023-02-28T04:34:30;10.00;;;4.40;;
20810;SDS011;10566;52.928;10.522;2023-02-28T04:37:01;8.57;;;4.03;;
20810;SDS011;10566;52.928;10.522;2023-02-28T04:39:34;8.57;;;4.20;;
20810;SDS011;10566;52.928;10.522;2023-02-28T04:42:00;9.43;;;3.90;;
20810;SDS011;10566;52.928;10.522;2023-02-28T04:44:26;8.47;;;4.33;;
20810;SDS011;10566;52.928;10.522;2023-02-28T04:46:52;9.53;;;4.57;;
20810;SDS011;10566;52.928;10.522;2023-02-28T04:49:19;8.80;;;4.60;;
20810;SDS011;10566;52.928;10.522;2023-02-28T04:51:48;9.17;;;4.30;;
20810;SDS011;10566;52.928;10.522;2023-02-28T04:54:15;13.53;;;5.00;;
20810;SDS011;10566;52.928;10.522;2023-02-28T04:56:42;12.47;;;5.07;;
20810;SDS011;10566;52.928;10.522;2023-02-28T04:59:09;10.40;;;4.50;;
20810;SDS011;10566;52.928;10.522;2023-02-28T05:01:37;9.23;;;4.53;;
20810;SDS011;10566;52.928;10.522;2023-02-28T05:04:03;9.17;;;5.00;;
20810;SDS011;10566;52.928;10.522;2023-02-28T05:06:30;9.83;;;5.23;;
20810;SDS011;10566;52.928;10.522;2023-02-28T05:08:57;10.27;;;4.80;;
20810;SDS011;10566;52.928;10.522;2023-02-28T05:11:24;13.13;;;6.13;;
20810;SDS011;10566;52.928;10.522;2023-02-28T05:13:52;11.47;;;5.50;;
20810;SDS011;10566;52.928;10.522;2023-02-28T05:16:19;11.53;;;6.00;;
20810;SDS011;10566;52.928;10.522;2023-02-28T05:18:45;10.20;;;5.20;;
20810;SDS011;10566;52.928;10.522;2023-02-28T05:21:25;8.77;;;5.30;;
20810;SDS011;10566;52.928;10.522;2023-02-28T05:23:52;9.90;;;5.17;;
20810;SDS011;10566;52.928;10.522;2023-02-28T05:26:18;11.43;;;4.53;;
20810;SDS011;10566;52.928;10.522;2023-02-28T05:28:45;9.37;;;4.83;;
20810;SDS011;10566;52.928;10.522;2023-02-28T05:31:11;9.53;;;4.63;;
20810;SDS011;10566;52.928;10.522;2023-02-28T05:33:37;8.10;;;4.33;;
20810;SDS011;10566;52.928;10.522;2023-02-28T05:36:03;9.90;;;4.83;;
20810;SDS011;10566;52.928;10.522;2023-02-28T05:38:29;9.27;;;4.43;;
20810;SDS011;10566;52.928;10.522;2023-02-28T05:40:55;9.90;;;4.87;;
20810;SDS011;10566;52.928;10.522;2023-02-28T05:43:21;11.73;;;4.60;;
20810;SDS011;10566;52.928;10.522;2023-02-28T05:45:47;11.43;;;4.80;;
20810;SDS011;10566;52.928;10.522;2023-02-28T05:48:13;9.80;;;4.70;;
20810;SDS011;10566;52.928;10.522;2023-02-28T05:50:39;8.20;;;4.63;;
20810;SDS011;10566;52.928;10.522;2023-02-28T05:53:07;10.97;;;4.67;;
20810;SDS011;10566;52.928;10.522;2023-02-28T05:55:33;11.73;;;4.63;;
20810;SDS011;10566;52.928;10.522;2023-02-28T05:58:00;9.57;;;5.10;;
20810;SDS011;10566;52.928;10.522;2023-02-28T06:00:26;10.17;;;4.70;;
20810;SDS011;10566;52.928;10.522;2023-02-28T06:02:52;8.77;;;5.07;;
20810;SDS011;10566;52.928;10.522;2023-02-28T06:05:21;12.83;;;5.83;;
20810;SDS011;10566;52.928;10.522;2023-02-28T06:07:47;9.37;;;5.13;;
20810;SDS011;10566;52.928;10.522;2023-02-28T06:10:13;9.83;;;4.83;;
20810;SDS011;10566;52.928;10.522;2023-02-28T06:12:39;9.97;;;5.17;;
20810;SDS011;10566;52.928;10.522;2023-02-28T06:15:13;10.87;;;5.20;;
20810;SDS011;10566;52.928;10.522;2023-02-28T06:17:39;10.47;;;5.27;;
20810;SDS011;10566;52.928;10.522;2023-02-28T06:20:06;15.30;;;5.53;;
20810;SDS011;10566;52.928;10.522;2023-02-28T06:22:35;10.83;;;5.47;;
20810;SDS011;10566;52.928;10.522;2023-02-28T06:25:03;11.37;;;6.07;;
20810;SDS011;10566;52.928;10.522;2023-02-28T06:27:30;11.47;;;5.37;;
20810;SDS011;10566;52.928;10.522;2023-02-28T06:29:56;11.93;;;6.03;;
20810;SDS011;10566;52.928;10.522;2023-02-28T06:32:22;11.80;;;5.90;;
20810;SDS011;10566;52.928;10.522;2023-02-28T06:34:48;12.57;;;6.87;;
20810;SDS011;10566;52.928;10.522;2023-02-28T06:37:15;12.93;;;6.30;;
20810;SDS011;10566;52.928;10.522;2023-02-28T06:39:41;15.10;;;7.10;;
20810;SDS011;10566;52.928;10.522;2023-02-28T06:42:07;17.70;;;7.03;;
20810;SDS011;10566;52.928;10.522;2023-02-28T06:44:33;15.80;;;7.30;;
20810;SDS011;10566;52.928;10.522;2023-02-28T06:47:03;10.30;;;6.30;;
20810;SDS011;10566;52.928;10.522;2023-02-28T06:49:30;11.50;;;7.00;;
20810;SDS011;10566;52.928;10.522;2023-02-28T06:51:56;12.43;;;6.40;;
20810;SDS011;10566;52.928;10.522;2023-02-28T06:54:22;10.70;;;5.83;;
20810;SDS011;10566;52.928;10.522;2023-02-28T06:56:48;12.77;;;6.40;;
20810;SDS011;10566;52.928;10.522;2023-02-28T06:59:15;11.57;;;6.20;;
20810;SDS011;10566;52.928;10.522;2023-02-28T07:01:41;10.43;;;5.77;;
20810;SDS011;10566;52.928;10.522;2023-02-28T07:04:07;10.87;;;6.30;;
20810;SDS011;10566;52.928;10.522;2023-02-28T07:06:33;14.57;;;5.90;;
20810;SDS011;10566;52.928;10.522;2023-02-28T07:08:59;14.60;;;7.10;;
20810;SDS011;10566;52.928;10.522;2023-02-28T07:11:26;11.10;;;6.40;;
20810;SDS011;10566;52.928;10.522;2023-02-28T07:13:55;11.80;;;6.27;;
20810;SDS011;10566;52.928;10.522;2023-02-28T07:16:22;12.97;;;6.23;;
20810;SDS011;10566;52.928;10.522;2023-02-28T07:18:48;11.17;;;6.27;;
20810;SDS011;10566;52.928;10.522;2023-02-28T07:21:14;10.03;;;5.97;;
20810;SDS011;10566;52.928;10.522;2023-02-28T07:23:41;10.97;;;6.23;;
20810;SDS011;10566;52.928;10.522;2023-02-28T07:26:07;10.23;;;5.73;;
20810;SDS011;10566;52.928;10.522;2023-02-28T07:28:36;11.47;;;5.80;;
20810;SDS011;10566;52.928;10.522;2023-02-28T07:31:04;9.53;;;5.60;;
20810;SDS011;10566;52.928;10.522;2023-02-28T07:33:30;10.03;;;5.37;;
20810;SDS011;10566;52.928;10.522;2023-02-28T07:36:00;7.93;;;5.47;;
20810;SDS011;10566;52.928;10.522;2023-02-28T07:38:26;7.90;;;5.50;;
20810;SDS011;10566;52.928;10.522;2023-02-28T07:40:52;8.33;;;4.30;;
20810;SDS011;10566;52.928;10.522;2023-02-28T07:43:21;7.07;;;4.33;;
20810;SDS011;10566;52.928;10.522;2023-02-28T07:45:47;11.10;;;4.27;;
20810;SDS011;10566;52.928;10.522;2023-02-28T07:48:13;7.77;;;3.90;;
20810;SDS011;10566;52.928;10.522;2023-02-28T07:50:39;6.40;;;3.67;;
20810;SDS011;10566;52.928;10.522;2023-02-28T07:53:05;7.37;;;3.93;;
20810;SDS011;10566;52.928;10.522;2023-02-28T07:55:31;7.50;;;3.83;;
20810;SDS011;10566;52.928;10.522;2023-02-28T07:57:57;6.33;;;3.50;;
20810;SDS011;10566;52.928;10.522;2023-02-28T08:00:24;8.77;;;3.50;;
20810;SDS011;10566;52.928;10.522;2023-02-28T08:02:50;7.30;;;3.90;;
20810;SDS011;10566;52.928;10.522;2023-02-28T08:05:16;8.40;;;3.77;;
20810;SDS011;10566;52.928;10.522;2023-02-28T08:07:42;8.03;;;3.40;;
20810;SDS011;10566;52.928;10.522;2023-02-28T08:10:08;7.23;;;3.70;;
20810;SDS011;10566;52.928;10.522;2023-02-28T08:12:35;8.00;;;4.00;;
20810;SDS011;10566;52.928;10.522;2023-02-28T08:15:01;7.80;;;3.37;;
20810;SDS011;10566;52.928;10.522;2023-02-28T08:17:27;8.33;;;3.90;;
20810;SDS011;10566;52.928;10.522;2023-02-28T08:19:53;8.20;;;4.00;;
20810;SDS011;10566;52.928;10.522;2023-02-28T08:22:19;7.53;;;3.30;;
20810;SDS011;10566;52.928;10.522;2023-02-28T08:24:45;8.30;;;4.10;;
20810;SDS011;10566;52.928;10.522;2023-02-28T08:27:11;7.23;;;4.13;;
20810;SDS011;10566;52.928;10.522;2023-02-28T08:29:38;7.77;;;3.93;;
20810;SDS011;10566;52.928;10.522;2023-02-28T08:32:04;12.03;;;5.70;;
20810;SDS011;10566;52.928;10.522;2023-02-28T08:34:30;12.03;;;6.03;;
20810;SDS011;10566;52.928;10.522;2023-02-28T08:36:57;14.20;;;7.10;;
20810;SDS011;10566;52.928;10.522;2023-02-28T08:39:23;14.80;;;7.53;;
20810;SDS011;10566;52.928;10.522;2023-02-28T08:41:49;13.47;;;7.00;;
20810;SDS011;10566;52.928;10.522;2023-02-28T08:44:15;12.57;;;6.60;;
20810;SDS011;10566;52.928;10.522;2023-02-28T08:46:41;13.03;;;6.50;;
20810;SDS011;10566;52.928;10.522;2023-02-28T08:49:09;12.23;;;6.13;;
20810;SDS011;10566;52.928;10.522;2023-02-28T08:51:36;12.47;;;6.17;;
20810;SDS011;10566;52.928;10.522;2023-02-28T08:54:02;10.93;;;5.53;;
20810;SDS011;10566;52.928;10.522;2023-02-28T08:56:28;12.77;;;6.10;;
20810;SDS011;10566;52.928;10.522;2023-02-28T08:58:56;11.37;;;6.30;;
20810;SDS011;10566;52.928;10.522;2023-02-28T09:01:23;12.00;;;6.63;;
20810;SDS011;10566;52.928;10.522;2023-02-28T09:03:50;11.03;;;5.87;;
20810;SDS011;10566;52.928;10.522;2023-02-28T09:06:17;10.40;;;5.03;;
20810;SDS011;10566;52.928;10.522;2023-02-28T09:08:44;8.37;;;4.50;;
20810;SDS011;10566;52.928;10.522;2023-02-28T09:11:10;9.33;;;4.33;;
20810;SDS011;10566;52.928;10.522;2023-02-28T09:13:37;10.43;;;4.87;;
20810;SDS011;10566;52.928;10.522;2023-02-28T09:16:04;10.00;;;4.80;;
20810;SDS011;10566;52.928;10.522;2023-02-28T09:18:30;9.17;;;5.33;;
20810;SDS011;10566;52.928;10.522;2023-02-28T09:20:56;9.33;;;5.30;;
20810;SDS011;10566;52.928;10.522;2023-02-28T09:23:23;9.93;;;5.50;;
20810;SDS011;10566;52.928;10.522;2023-02-28T09:25:50;9.70;;;5.37;;
20810;SDS011;10566;52.928;10.522;2023-02-28T09:28:16;9.87;;;5.13;;
20810;SDS011;10566;52.928;10.522;2023-02-28T09:30:47;9.10;;;4.23;;
20810;SDS011;10566;52.928;10.522;2023-02-28T09:33:13;8.60;;;3.90;;
20810;SDS011;10566;52.928;10.522;2023-02-28T09:35:39;5.17;;;2.50;;
20810;SDS011;10566;52.928;10.522;2023-02-28T09:38:05;6.80;;;2.90;;
20810;SDS011;10566;52.928;10.522;2023-02-28T09:40:34;8.53;;;3.00;;
20810;SDS011;10566;52.928;10.522;2023-02-28T09:43:01;6.10;;;2.70;;
20810;SDS011;10566;52.928;10.522;2023-02-28T09:45:32;5.83;;;2.67;;
20810;SDS011;10566;52.928;10.522;2023-02-28T09:47:59;5.43;;;2.20;;
20810;SDS011;10566;52.928;10.522;2023-02-28T09:50:36;6.93;;;3.10;;
20810;SDS011;10566;52.928;10.522;2023-02-28T09:53:06;4.43;;;2.07;;
20810;SDS011;10566;52.928;10.522;2023-02-28T09:55:42;5.70;;;2.00;;
20810;SDS011;10566;52.928;10.522;2023-02-28T09:58:32;4.67;;;1.83;;
20810;SDS011;10566;52.928;10.522;2023-02-28T10:01:03;6.40;;;2.27;;
20810;SDS011;10566;52.928;10.522;2023-02-28T10:03:42;4.90;;;2.40;;
20810;SDS011;10566;52.928;10.522;2023-02-28T10:06:13;7.40;;;2.80;;
20810;SDS011;10566;52.928;10.522;2023-02-28T10:11:10;5.50;;;2.03;;
20810;SDS011;10566;52.928;10.522;2023-02-28T10:13:42;5.33;;;2.10;;
20810;SDS011;10566;52.928;10.522;2023-02-28T10:16:16;4.47;;;1.90;;
20810;SDS011;10566;52.928;10.522;2023-02-28T10:18:52;3.80;;;1.67;;
20810;SDS011;10566;52.928;10.522;2023-02-28T10:21:23;3.30;;;1.47;;
20810;SDS011;10566;52.928;10.522;2023-02-28T10:23:52;4.17;;;1.40;;
20810;SDS011;10566;52.928;10.522;2023-02-28T10:26:22;4.03;;;1.40;;
20810;SDS011;10566;52.928;10.522;2023-02-28T10:28:48;2.60;;;1.13;;
20810;SDS011;10566;52.928;10.522;2023-02-28T10:31:19;4.17;;;1.43;;
20810;SDS011;10566;52.928;10.522;2023-02-28T10:33:46;3.43;;;1.50;;
20810;SDS011;10566;52.928;10.522;2023-02-28T10:36:14;3.60;;;1.60;;
20810;SDS011;10566;52.928;10.522;2023-02-28T10:38:41;3.73;;;1.57;;
20810;SDS011;10566;52.928;10.522;2023-02-28T10:43:35;4.77;;;1.70;;
20810;SDS011;10566;52.928;10.522;2023-02-28T10:46:22;3.33;;;1.30;;
20810;SDS011;10566;52.928;10.522;2023-02-28T10:48:59;3.53;;;1.30;;
20810;SDS011;10566;52.928;10.522;2023-02-28T10:51:26;4.10;;;1.50;;
20810;SDS011;10566;52.928;10.522;2023-02-28T10:53:59;4.03;;;1.40;;
20810;SDS011;10566;52.928;10.522;2023-02-28T10:56:25;4.63;;;1.60;;
20810;SDS011;10566;52.928;10.522;2023-02-28T10:59:02;5.83;;;1.50;;
20810;SDS011;10566;52.928;10.522;2023-02-28T11:03:57;4.50;;;1.50;;
20810;SDS011;10566;52.928;10.522;2023-02-28T11:06:29;5.23;;;2.17;;
20810;SDS011;10566;52.928;10.522;2023-02-28T11:08:56;6.90;;;1.70;;
20810;SDS011;10566;52.928;10.522;2023-02-28T11:11:23;5.53;;;1.43;;
20810;SDS011;10566;52.928;10.522;2023-02-28T11:13:51;5.13;;;1.50;;
20810;SDS011;10566;52.928;10.522;2023-02-28T11:16:18;4.17;;;1.80;;
20810;SDS011;10566;52.928;10.522;2023-02-28T11:18:52;4.43;;;1.90;;
20810;SDS011;10566;52.928;10.522;2023-02-28T11:21:25;4.43;;;1.80;;
20810;SDS011;10566;52.928;10.522;2023-02-28T11:23:54;3.90;;;1.63;;
20810;SDS011;10566;52.928;10.522;2023-02-28T11:26:36;5.43;;;1.60;;
20810;SDS011;10566;52.928;10.522;2023-02-28T11:29:05;6.73;;;1.70;;
20810;SDS011;10566;52.928;10.522;2023-02-28T11:31:34;6.13;;;2.00;;
20810;SDS011;10566;52.928;10.522;2023-02-28T11:34:00;3.63;;;1.60;;
20810;SDS011;10566;52.928;10.522;2023-02-28T11:36:27;4.40;;;1.60;;
20810;SDS011;10566;52.928;10.522;2023-02-28T11:38:56;4.57;;;1.67;;
20810;SDS011;10566;52.928;10.522;2023-02-28T11:46:37;3.40;;;1.23;;
20810;SDS011;10566;52.928;10.522;2023-02-28T11:49:10;4.07;;;1.17;;
20810;SDS011;10566;52.928;10.522;2023-02-28T11:54:14;2.90;;;1.30;;
20810;SDS011;10566;52.928;10.522;2023-02-28T11:56:47;4.77;;;1.60;;
20810;SDS011;10566;52.928;10.522;2023-02-28T12:02:03;4.60;;;1.40;;
20810;SDS011;10566;52.928;10.522;2023-02-28T12:17:22;5.20;;;1.20;;
20810;SDS011;10566;52.928;10.522;2023-02-28T12:19:59;3.13;;;1.20;;
20810;SDS011;10566;52.928;10.522;2023-02-28T12:22:29;4.93;;;1.30;;
20810;SDS011;10566;52.928;10.522;2023-02-28T12:27:41;3.83;;;1.20;;
20810;SDS011;10566;52.928;10.522;2023-02-28T12:30:16;4.47;;;1.20;;
20810;SDS011;10566;52.928;10.522;2023-02-28T12:32:44;4.67;;;1.50;;
20810;SDS011;10566;52.928;10.522;2023-02-28T12:35:13;4.03;;;1.30;;
20810;SDS011;10566;52.928;10.522;2023-02-28T12:37:47;3.00;;;1.30;;
20810;SDS011;10566;52.928;10.522;2023-02-28T12:40:17;4.77;;;1.30;;
20810;SDS011;10566;52.928;10.522;2023-02-28T12:42:51;5.37;;;1.30;;
20810;SDS011;10566;52.928;10.522;2023-02-28T12:47:44;5.70;;;1.13;;
20810;SDS011;10566;52.928;10.522;2023-02-28T12:50:12;2.70;;;1.00;;
20810;SDS011;10566;52.928;10.522;2023-02-28T12:52:56;2.80;;;1.03;;
20810;SDS011;10566;52.928;10.522;2023-02-28T12:57:58;3.57;;;1.20;;
20810;SDS011;10566;52.928;10.522;2023-02-28T13:00:29;6.57;;;1.10;;
20810;SDS011;10566;52.928;10.522;2023-02-28T13:03:19;2.97;;;1.03;;
20810;SDS011;10566;52.928;10.522;2023-02-28T13:06:04;6.20;;;2.10;;
20810;SDS011;10566;52.928;10.522;2023-02-28T13:08:38;4.47;;;1.63;;
20810;SDS011;10566;52.928;10.522;2023-02-28T13:11:23;3.80;;;1.90;;
20810;SDS011;10566;52.928;10.522;2023-02-28T13:13:50;4.27;;;1.20;;
20810;SDS011;10566;52.928;10.522;2023-02-28T13:16:22;2.60;;;1.00;;
20810;SDS011;10566;52.928;10.522;2023-02-28T13:18:48;2.77;;;1.07;;
20810;SDS011;10566;52.928;10.522;2023-02-28T13:26:32;3.43;;;1.40;;
20810;SDS011;10566;52.928;10.522;2023-02-28T13:34:26;4.13;;;1.20;;
20810;SDS011;10566;52.928;10.522;2023-02-28T13:37:20;2.53;;;0.90;;
20810;SDS011;10566;52.928;10.522;2023-02-28T13:47:31;3.60;;;0.90;;
20810;SDS011;10566;52.928;10.522;2023-02-28T13:55:37;3.67;;;1.10;;
20810;SDS011;10566;52.928;10.522;2023-02-28T13:58:20;3.70;;;1.30;;
20810;SDS011;10566;52.928;10.522;2023-02-28T14:01:03;3.60;;;1.30;;
20810;SDS011;10566;52.928;10.522;2023-02-28T14:06:17;2.90;;;1.03;;
20810;SDS011;10566;52.928;10.522;2023-02-28T14:09:01;5.60;;;1.30;;
20810;SDS011;10566;52.928;10.522;2023-02-28T14:11:30;4.27;;;1.13;;
20810;SDS011;10566;52.928;10.522;2023-02-28T14:13:56;3.53;;;1.30;;
20810;SDS011;10566;52.928;10.522;2023-02-28T14:16:24;3.90;;;1.30;;
20810;SDS011;10566;52.928;10.522;2023-02-28T14:18:55;3.57;;;1.30;;
20810;SDS011;10566;52.928;10.522;2023-02-28T14:32:24;4.00;;;1.13;;
20810;SDS011;10566;52.928;10.522;2023-02-28T14:34:53;4.20;;;1.60;;
20810;SDS011;10566;52.928;10.522;2023-02-28T14:37:23;3.47;;;1.40;;
20810;SDS011;10566;52.928;10.522;2023-02-28T14:39:52;3.33;;;1.30;;
20810;SDS011;10566;52.928;10.522;2023-02-28T14:44:57;4.13;;;1.70;;
20810;SDS011;10566;52.928;10.522;2023-02-28T14:47:23;4.30;;;1.17;;
20810;SDS011;10566;52.928;10.522;2023-02-28T14:49:51;4.70;;;1.50;;
20810;SDS011;10566;52.928;10.522;2023-02-28T14:52:19;4.27;;;1.40;;
20810;SDS011;10566;52.928;10.522;2023-02-28T14:54:46;4.57;;;1.40;;
20810;SDS011;10566;52.928;10.522;2023-02-28T14:57:21;3.97;;;1.50;;
20810;SDS011;10566;52.928;10.522;2023-02-28T14:59:56;3.50;;;1.40;;
20810;SDS011;10566;52.928;10.522;2023-02-28T15:02:23;3.50;;;1.30;;
20810;SDS011;10566;52.928;10.522;2023-02-28T15:04:57;4.30;;;1.50;;
20810;SDS011;10566;52.928;10.522;2023-02-28T15:07:23;3.90;;;1.53;;
20810;SDS011;10566;52.928;10.522;2023-02-28T15:12:35;4.70;;;1.30;;
20810;SDS011;10566;52.928;10.522;2023-02-28T15:15:01;4.93;;;1.43;;
20810;SDS011;10566;52.928;10.522;2023-02-28T15:17:27;3.83;;;1.30;;
20810;SDS011;10566;52.928;10.522;2023-02-28T15:19:53;3.93;;;1.40;;
20810;SDS011;10566;52.928;10.522;2023-02-28T15:22:23;5.17;;;1.43;;
20810;SDS011;10566;52.928;10.522;2023-02-28T15:24:56;6.67;;;2.50;;
20810;SDS011;10566;52.928;10.522;2023-02-28T15:27:30;9.03;;;2.43;;
20810;SDS011;10566;52.928;10.522;2023-02-28T15:30:07;4.27;;;1.90;;
20810;SDS011;10566;52.928;10.522;2023-02-28T15:32:37;6.40;;;1.77;;
20810;SDS011;10566;52.928;10.522;2023-02-28T15:37:54;6.43;;;1.60;;
20810;SDS011;10566;52.928;10.522;2023-02-28T15:40:28;5.93;;;2.00;;
20810;SDS011;10566;52.928;10.522;2023-02-28T15:43:14;4.70;;;1.60;;
20810;SDS011;10566;52.928;10.522;2023-02-28T15:48:19;3.77;;;1.50;;
20810;SDS011;10566;52.928;10.522;2023-02-28T15:50:47;4.20;;;1.53;;
20810;SDS011;10566;52.928;10.522;2023-02-28T15:53:19;5.50;;;1.47;;
20810;SDS011;10566;52.928;10.522;2023-02-28T15:55:51;5.23;;;1.70;;
20810;SDS011;10566;52.928;10.522;2023-02-28T15:58:18;4.03;;;1.60;;
20810;SDS011;10566;52.928;10.522;2023-02-28T16:00:59;4.77;;;1.70;;
20810;SDS011;10566;52.928;10.522;2023-02-28T16:03:26;3.60;;;1.70;;
20810;SDS011;10566;52.928;10.522;2023-02-28T16:06:39;4.23;;;1.70;;
20810;SDS011;10566;52.928;10.522;2023-02-28T16:08:39;6.83;;;1.87;;
20810;SDS011;10566;52.928;10.522;2023-02-28T16:11:05;7.73;;;2.70;;
20810;SDS011;10566;52.928;10.522;2023-02-28T16:13:31;10.27;;;4.20;;
20810;SDS011;10566;52.928;10.522;2023-02-28T16:15:57;11.70;;;4.80;;
20810;SDS011;10566;52.928;10.522;2023-02-28T16:18:25;7.23;;;2.30;;
20810;SDS011;10566;52.928;10.522;2023-02-28T16:20:51;5.17;;;1.90;;
20810;SDS011;10566;52.928;10.522;2023-02-28T16:26:16;5.53;;;2.30;;
20810;SDS011;10566;52.928;10.522;2023-02-28T16:28:44;5.73;;;2.20;;
20810;SDS011;10566;52.928;10.522;2023-02-28T16:31:10;7.63;;;2.70;;
20810;SDS011;10566;52.928;10.522;2023-02-28T16:33:41;9.07;;;3.07;;
20810;SDS011;10566;52.928;10.522;2023-02-28T16:36:09;6.33;;;2.47;;